Time;durP1;ratioP1;P1;durP2;ratioP2;P2;SDS_P1;SDS_P2;PMS_P1;PMS_P2;Temp;Humidity;BMP_temperature;BMP_pressure;BME280_temperature;BME280_humidity;BME280_pressure;Samples;Min_cycle;Max_cycle;Signal;HPM_P1;HPM_P2
2022/12/13 05:02:26;;;;;;;31.17;23.97;;;-4.80;99.90;;;;;;6267702;22;20464;-62
2022/12/13 05:04:53;;;;;;;35.90;25.30;;;-4.80;99.90;;;;;;6277225;22;20406;-64
2022/12/13 05:07:20;;;;;;;38.03;26.80;;;-4.90;99.90;;;;;;6277225;22;20410;-62
2022/12/13 05:09:46;;;;;;;35.17;25.17;;;-4.90;99.90;;;;;;6277302;22;20554;-62
2022/12/13 05:12:13;;;;;;;31.80;24.83;;;-4.80;99.90;;;;;;6250949;22;20430;-62
2022/12/13 05:14:40;;;;;;;38.37;25.83;;;-4.90;99.90;;;;;;6246563;23;20411;-62
2022/12/13 05:17:06;;;;;;;37.33;26.13;;;-4.90;99.90;;;;;;6247718;23;20414;-65
2022/12/13 05:19:35;;;;;;;37.20;26.80;;;-4.90;99.90;;;;;;6247253;23;20397;-62
2022/12/13 05:22:02;;;;;;;39.80;27.37;;;-4.90;99.90;;;;;;6247222;22;20434;-63
2022/12/13 05:24:29;;;;;;;35.60;26.00;;;-5.00;99.90;;;;;;6247618;23;20411;-64
2022/12/13 05:26:56;;;;;;;34.27;25.30;;;-5.00;99.90;;;;;;6246817;23;20410;-62
2022/12/13 05:29:23;;;;;;;42.10;26.20;;;-5.10;99.90;;;;;;6246308;23;20954;-63
2022/12/13 05:31:49;;;;;;;36.13;26.40;;;-5.10;99.90;;;;;;6247081;22;20485;-63
2022/12/13 05:34:16;;;;;;;35.27;25.23;;;-5.00;99.90;;;;;;6246956;23;20860;-63
2022/12/13 05:36:44;;;;;;;37.17;27.53;;;-5.00;99.90;;;;;;6247466;23;20742;-63
2022/12/13 05:39:11;;;;;;;35.67;26.87;;;-5.00;99.90;;;;;;6246707;23;20883;-63
2022/12/13 05:41:37;;;;;;;34.37;25.97;;;-5.00;99.90;;;;;;6247530;22;20426;-63
2022/12/13 05:44:04;;;;;;;38.53;26.90;;;-5.00;99.90;;;;;;6248569;23;20465;-63
2022/12/13 05:46:31;;;;;;;39.00;26.87;;;-4.90;99.90;;;;;;6248543;23;20411;-63
2022/12/13 05:48:58;;;;;;;37.57;26.93;;;-4.90;99.90;;;;;;6248547;23;20431;-63
2022/12/13 05:51:24;;;;;;;32.53;24.30;;;-4.90;99.90;;;;;;6248395;22;20458;-63
2022/12/13 05:53:52;;;;;;;37.37;27.20;;;-4.90;99.90;;;;;;6248568;23;20410;-63
2022/12/13 05:56:19;;;;;;;40.10;26.80;;;-4.90;99.90;;;;;;6248479;23;20493;-63
2022/12/13 05:58:45;;;;;;;34.30;25.67;;;-4.90;99.90;;;;;;6248279;23;20464;-63
2022/12/13 06:01:14;;;;;;;34.57;24.63;;;-4.90;99.90;;;;;;6248134;22;20461;-62
2022/12/13 06:03:41;;;;;;;39.50;29.80;;;-4.90;99.90;;;;;;6248321;23;20410;-63
2022/12/13 06:06:10;;;;;;;37.10;26.93;;;-4.90;99.90;;;;;;6252021;23;20410;-63
2022/12/13 06:08:37;;;;;;;41.80;28.70;;;-4.90;99.90;;;;;;6252368;23;20786;-63
2022/12/13 06:11:06;;;;;;;38.00;26.90;;;-4.90;99.90;;;;;;6253011;22;20434;-63
2022/12/13 06:13:33;;;;;;;33.90;27.27;;;-4.90;99.90;;;;;;6248456;23;20411;-63
2022/12/13 06:16:02;;;;;;;33.90;25.20;;;-4.90;99.90;;;;;;6248295;23;20780;-62
2022/12/13 06:18:30;;;;;;;35.30;28.13;;;-4.90;99.90;;;;;;6248293;23;20410;-63
2022/12/13 06:20:59;;;;;;;41.70;28.00;;;-4.90;99.90;;;;;;6248227;22;20488;-63
2022/12/13 06:23:25;;;;;;;34.03;26.80;;;-4.90;99.90;;;;;;6247832;23;20957;-62
2022/12/13 06:25:52;;;;;;;38.83;27.43;;;-4.90;99.90;;;;;;6248397;23;20518;-62
2022/12/13 06:28:21;;;;;;;36.80;27.13;;;-4.80;99.90;;;;;;6248852;23;20411;-63
2022/12/13 06:30:51;;;;;;;38.83;27.90;;;-4.80;99.90;;;;;;6248248;22;20525;-63
2022/12/13 06:33:17;;;;;;;37.03;28.60;;;-4.80;99.90;;;;;;6248596;23;20417;-63
2022/12/13 06:35:44;;;;;;;36.60;29.33;;;-4.70;99.90;;;;;;6248101;23;20422;-63
2022/12/13 06:38:11;;;;;;;38.27;29.20;;;-4.70;99.90;;;;;;6248028;23;20411;-63
2022/12/13 06:40:38;;;;;;;37.63;27.57;;;-4.70;99.90;;;;;;6248145;22;20505;-63
2022/12/13 06:43:05;;;;;;;39.07;29.17;;;-4.70;99.90;;;;;;6247494;23;20418;-63
2022/12/13 06:45:33;;;;;;;39.87;26.50;;;-4.70;99.90;;;;;;6247908;23;20411;-62
2022/12/13 06:48:00;;;;;;;35.60;28.27;;;-4.70;99.90;;;;;;6247617;23;20975;-63
2022/12/13 06:50:27;;;;;;;38.20;27.50;;;-4.70;99.90;;;;;;6247814;22;20490;-62
2022/12/13 06:52:53;;;;;;;35.37;27.73;;;-4.80;99.90;;;;;;6248141;23;20418;-62
2022/12/13 06:55:20;;;;;;;35.53;26.93;;;-4.70;99.90;;;;;;6247835;23;20461;-64
2022/12/13 06:57:47;;;;;;;37.00;26.43;;;-4.70;99.90;;;;;;6248008;23;20411;-63
2022/12/13 07:00:14;;;;;;;37.20;27.40;;;-4.60;99.90;;;;;;6247628;22;20782;-63
2022/12/13 07:02:42;;;;;;;31.50;24.57;;;-4.60;99.90;;;;;;6247992;23;20445;-62
2022/12/13 07:05:10;;;;;;;35.13;26.37;;;-4.60;99.90;;;;;;6247554;23;20411;-62
2022/12/13 07:07:37;;;;;;;33.00;26.00;;;-4.60;99.90;;;;;;6247754;23;20434;-63
2022/12/13 07:10:04;;;;;;;34.23;25.63;;;-4.60;99.90;;;;;;6247468;23;20434;-62
2022/12/13 07:12:31;;;;;;;39.07;28.27;;;-4.60;99.90;;;;;;6247426;22;20740;-63
2022/12/13 07:14:58;;;;;;;35.47;28.10;;;-4.60;99.90;;;;;;6247495;23;20491;-63
2022/12/13 07:17:24;;;;;;;37.83;28.63;;;-4.60;99.90;;;;;;6247528;23;20419;-63
2022/12/13 07:19:52;;;;;;;37.00;27.70;;;-4.60;99.90;;;;;;6248089;23;20407;-63
2022/12/13 07:22:19;;;;;;;41.73;27.80;;;-4.60;99.90;;;;;;6247673;22;20434;-63
2022/12/13 07:24:46;;;;;;;39.83;27.53;;;-4.50;99.90;;;;;;6247738;23;20783;-63
2022/12/13 07:27:12;;;;;;;41.10;28.17;;;-4.50;99.90;;;;;;6247113;23;20743;-63
2022/12/13 07:29:39;;;;;;;37.73;26.30;;;-4.50;99.90;;;;;;6247771;23;20728;-63
2022/12/13 07:32:06;;;;;;;35.83;25.13;;;-4.40;99.90;;;;;;6247276;22;20943;-63
2022/12/13 07:34:32;;;;;;;35.13;25.43;;;-4.40;99.90;;;;;;6248504;23;20489;-64
2022/12/13 07:37:00;;;;;;;34.00;25.10;;;-4.40;99.90;;;;;;6247423;23;20473;-63
2022/12/13 07:39:27;;;;;;;33.53;26.00;;;-4.30;99.90;;;;;;6247307;23;20717;-64
2022/12/13 07:41:55;;;;;;;34.43;26.70;;;-4.20;99.90;;;;;;6247328;22;20441;-64
2022/12/13 07:44:21;;;;;;;35.13;27.67;;;-3.90;99.90;;;;;;6247396;23;20450;-63
2022/12/13 07:46:48;;;;;;;30.07;24.57;;;-3.60;99.90;;;;;;6247437;23;20519;-62
2022/12/13 07:49:15;;;;;;;30.00;23.90;;;-3.20;99.90;;;;;;6247266;23;20780;-62
2022/12/13 07:51:41;;;;;;;29.90;25.00;;;-2.90;99.90;;;;;;6247160;22;20431;-62
2022/12/13 07:54:09;;;;;;;30.37;25.17;;;-2.40;99.90;;;;;;6247286;23;20411;-62
2022/12/13 07:56:36;;;;;;;29.87;24.23;;;-1.80;99.90;;;;;;6247573;23;20417;-62
2022/12/13 07:59:03;;;;;;;28.63;23.53;;;-1.20;99.90;;;;;;6247217;23;20418;-62
2022/12/13 08:01:33;;;;;;;28.77;22.30;;;-0.70;99.90;;;;;;6247181;22;20814;-62
2022/12/13 08:03:59;;;;;;;26.40;22.37;;;-0.20;99.90;;;;;;6247319;23;20467;-62
2022/12/13 08:06:26;;;;;;;28.67;23.97;;;0.10;99.90;;;;;;6246769;23;20481;-62
2022/12/13 08:08:55;;;;;;;30.17;23.43;;;0.10;99.90;;;;;;6246993;23;20892;-62
2022/12/13 08:11:23;;;;;;;28.67;23.50;;;0.20;99.90;;;;;;6247142;22;20442;-62
2022/12/13 08:13:50;;;;;;;42.40;26.80;;;0.30;99.90;;;;;;6247078;23;20415;-62
2022/12/13 08:16:17;;;;;;;35.73;27.37;;;0.30;99.90;;;;;;6247140;23;20445;-62
2022/12/13 08:18:46;;;;;;;31.97;25.90;;;0.10;99.90;;;;;;6247503;23;20482;-62
2022/12/13 08:21:13;;;;;;;29.70;23.50;;;0.30;99.90;;;;;;6247057;22;20442;-62
2022/12/13 08:23:40;;;;;;;26.40;23.00;;;0.40;99.90;;;;;;6246942;23;20410;-62
2022/12/13 08:26:06;;;;;;;26.93;23.10;;;0.40;99.90;;;;;;6247064;23;20411;-62
2022/12/13 08:28:36;;;;;;;26.57;22.37;;;0.30;99.90;;;;;;6248140;23;20417;-62
2022/12/13 08:31:05;;;;;;;30.47;25.57;;;0.30;99.90;;;;;;6246870;22;20443;-64
2022/12/13 08:33:33;;;;;;;25.07;22.00;;;0.60;99.90;;;;;;6246779;23;20896;-64
2022/12/13 08:36:07;;;;;;;29.80;22.80;;;0.90;99.90;;;;;;6246748;23;20896;-62
2022/12/13 08:38:34;;;;;;;27.10;22.73;;;1.20;99.90;;;;;;6247034;23;20416;-62
2022/12/13 08:41:01;;;;;;;26.93;21.20;;;1.20;99.90;;;;;;6247019;22;20431;-62
2022/12/13 08:43:27;;;;;;;24.83;20.67;;;1.00;99.90;;;;;;6247120;23;20457;-62
2022/12/13 08:45:55;;;;;;;24.37;21.30;;;1.00;99.90;;;;;;6247091;23;20395;-63
2022/12/13 08:48:22;;;;;;;28.90;22.60;;;1.00;99.90;;;;;;6246787;23;20898;-62
2022/12/13 08:50:49;;;;;;;24.53;20.90;;;0.90;99.90;;;;;;6247031;22;20438;-62
2022/12/13 08:53:15;;;;;;;25.07;21.37;;;0.80;99.90;;;;;;6247073;23;20447;-63
2022/12/13 08:55:42;;;;;;;27.30;22.53;;;0.80;99.90;;;;;;6246480;23;20415;-63
2022/12/13 08:58:09;;;;;;;24.87;20.87;;;0.90;99.90;;;;;;6246838;23;20469;-63
2022/12/13 09:00:36;;;;;;;25.70;21.40;;;1.00;99.90;;;;;;6247511;22;20435;-63
2022/12/13 09:03:05;;;;;;;22.43;20.03;;;1.20;99.90;;;;;;6246852;23;20395;-63
2022/12/13 09:05:32;;;;;;;29.17;22.13;;;1.10;99.90;;;;;;6246771;23;20740;-63
2022/12/13 09:08:01;;;;;;;25.40;22.33;;;0.80;99.90;;;;;;6246665;23;20411;-63
2022/12/13 09:10:28;;;;;;;25.60;22.20;;;0.50;99.90;;;;;;6246520;22;20435;-63
2022/12/13 09:12:56;;;;;;;24.73;21.10;;;0.30;99.90;;;;;;6246586;23;20445;-63
2022/12/13 09:15:22;;;;;;;26.70;22.90;;;0.00;99.90;;;;;;6246794;23;20411;-63
2022/12/13 09:17:50;;;;;;;25.77;22.10;;;-0.20;99.90;;;;;;6249060;23;20410;-63
2022/12/13 09:20:18;;;;;;;25.73;22.70;;;-0.40;99.90;;;;;;6249564;22;20407;-63
2022/12/13 09:22:45;;;;;;;23.77;20.93;;;-0.30;99.90;;;;;;6250057;23;20411;-63
2022/12/13 09:25:12;;;;;;;26.30;21.40;;;-0.40;99.90;;;;;;6250035;23;20783;-63
2022/12/13 09:27:38;;;;;;;23.33;20.83;;;-0.40;99.90;;;;;;6250164;23;20414;-63
2022/12/13 09:30:06;;;;;;;30.70;20.10;;;-0.40;99.90;;;;;;6250134;23;20435;-62
2022/12/13 09:32:33;;;;;;;25.23;21.40;;;-0.50;99.90;;;;;;6250159;22;20439;-63
2022/12/13 09:35:00;;;;;;;25.13;20.90;;;-0.60;99.90;;;;;;6250627;23;20960;-62
2022/12/13 09:37:29;;;;;;;27.20;20.53;;;-0.80;99.90;;;;;;6249984;23;20464;-62
2022/12/13 09:39:55;;;;;;;27.73;21.10;;;-0.80;99.90;;;;;;6250173;23;20956;-63
2022/12/13 09:42:24;;;;;;;27.03;20.47;;;-0.90;99.90;;;;;;6251352;22;20435;-63
2022/12/13 09:44:54;;;;;;;21.57;18.80;;;-0.80;99.90;;;;;;6252531;23;20411;-63
2022/12/13 09:47:30;;;;;;;26.23;20.67;;;-0.80;99.90;;;;;;6253273;23;20414;-63
2022/12/13 09:49:58;;;;;;;21.20;18.90;;;-0.70;99.90;;;;;;6254711;23;20426;-63
2022/12/13 09:52:26;;;;;;;20.87;18.40;;;-0.60;99.90;;;;;;6251219;22;20430;-63
2022/12/13 09:54:56;;;;;;;27.30;21.47;;;-0.50;99.90;;;;;;6250693;23;20736;-63
2022/12/13 09:57:27;;;;;;;25.20;19.87;;;-0.60;99.90;;;;;;6250688;23;20411;-62
2022/12/13 09:59:54;;;;;;;21.87;19.00;;;-0.50;99.90;;;;;;6250753;23;20411;-63
2022/12/13 10:02:25;;;;;;;25.20;20.63;;;-0.40;99.90;;;;;;6250486;22;20439;-63
2022/12/13 10:04:52;;;;;;;24.47;20.23;;;-0.40;99.90;;;;;;6251158;23;20427;-63
2022/12/13 10:07:21;;;;;;;21.93;18.67;;;-0.40;99.90;;;;;;6250912;23;20410;-62
2022/12/13 10:09:49;;;;;;;21.17;18.10;;;-0.50;99.90;;;;;;6250422;23;20411;-62
2022/12/13 10:12:17;;;;;;;21.37;18.67;;;-0.50;99.90;;;;;;6250617;22;20493;-62
2022/12/13 10:14:50;;;;;;;21.67;17.93;;;-0.60;99.90;;;;;;6250021;23;20493;-63
2022/12/13 10:17:21;;;;;;;22.50;18.73;;;-0.50;99.90;;;;;;6250101;23;20485;-62
2022/12/13 10:19:50;;;;;;;20.70;18.00;;;-0.50;99.90;;;;;;6250067;23;20448;-62
2022/12/13 10:22:19;;;;;;;21.63;18.07;;;-0.50;99.90;;;;;;6251026;22;20431;-62
2022/12/13 10:24:51;;;;;;;19.57;17.27;;;-0.50;99.90;;;;;;6249804;23;20488;-63
2022/12/13 10:27:21;;;;;;;21.90;18.43;;;-0.60;99.90;;;;;;6250799;23;20513;-62
2022/12/13 10:30:04;;;;;;;22.50;18.77;;;-0.40;99.90;;;;;;6248044;23;20401;-63
2022/12/13 10:32:33;;;;;;;20.30;17.57;;;-0.30;99.90;;;;;;6248034;22;20438;-62
2022/12/13 10:35:00;;;;;;;20.90;16.13;;;0.00;99.90;;;;;;6248596;23;20410;-62
2022/12/13 10:37:30;;;;;;;20.23;17.13;;;0.10;99.90;;;;;;6248222;23;20417;-62
2022/12/13 10:39:57;;;;;;;21.17;17.30;;;0.30;99.90;;;;;;6248246;23;20445;-63
2022/12/13 10:42:25;;;;;;;20.63;17.40;;;0.40;99.90;;;;;;6247790;22;20514;-62
2022/12/13 10:45:10;;;;;;;23.47;18.63;;;0.50;99.90;;;;;;6248802;23;20725;-62
2022/12/13 10:47:37;;;;;;;23.00;17.53;;;0.40;99.90;;;;;;6247771;23;20478;-62
2022/12/13 10:50:04;;;;;;;18.30;16.00;;;0.40;99.90;;;;;;6248079;23;20417;-62
2022/12/13 10:52:33;;;;;;;21.73;18.10;;;0.40;99.90;;;;;;6248852;22;20438;-62
2022/12/13 10:55:03;;;;;;;18.93;16.67;;;0.20;99.90;;;;;;6248035;23;20411;-62
2022/12/13 10:57:32;;;;;;;21.30;17.20;;;0.10;99.90;;;;;;6247958;23;20418;-62
2022/12/13 10:59:59;;;;;;;22.80;16.47;;;0.10;99.90;;;;;;6248068;23;20422;-62
2022/12/13 11:02:33;;;;;;;21.13;16.87;;;0.30;99.90;;;;;;6247591;22;20442;-63
2022/12/13 11:05:16;;;;;;;19.97;16.77;;;0.30;99.90;;;;;;6248030;23;20395;-63
2022/12/13 11:07:42;;;;;;;22.20;18.93;;;0.10;99.90;;;;;;6248000;23;20395;-62
2022/12/13 11:10:17;;;;;;;20.27;16.50;;;0.00;99.90;;;;;;6247848;23;20410;-62
2022/12/13 11:12:45;;;;;;;23.70;17.03;;;0.00;99.90;;;;;;6248109;23;20760;-63
2022/12/13 11:15:18;;;;;;;19.70;16.07;;;0.00;99.90;;;;;;6247922;23;20410;-63
2022/12/13 11:17:48;;;;;;;23.37;17.23;;;0.10;99.90;;;;;;6248513;23;20474;-63
2022/12/13 11:20:19;;;;;;;19.03;15.20;;;0.20;99.90;;;;;;6247702;22;20727;-63
2022/12/13 11:22:46;;;;;;;19.90;15.70;;;0.30;99.90;;;;;;6247696;23;20402;-64
2022/12/13 11:25:21;;;;;;;18.67;15.20;;;0.50;99.90;;;;;;6247934;23;20419;-63
2022/12/13 11:28:05;;;;;;;19.73;14.50;;;0.60;99.90;;;;;;6247724;23;20468;-62
2022/12/13 11:30:40;;;;;;;20.33;15.40;;;0.60;99.90;;;;;;6247559;22;20419;-63
2022/12/13 11:33:18;;;;;;;20.60;15.60;;;0.70;99.90;;;;;;6247760;23;20398;-63
2022/12/13 11:36:02;;;;;;;16.23;14.53;;;0.80;99.90;;;;;;6248413;23;20395;-62
2022/12/13 11:38:34;;;;;;;21.83;14.97;;;0.90;99.90;;;;;;6248317;23;20475;-63
2022/12/13 11:41:10;;;;;;;20.60;15.10;;;1.00;99.90;;;;;;6248151;22;20427;-63
2022/12/13 11:43:44;;;;;;;19.70;15.37;;;1.10;99.90;;;;;;6248599;23;20856;-63
2022/12/13 11:46:17;;;;;;;22.50;16.60;;;1.10;99.90;;;;;;6249275;23;20395;-63
2022/12/13 11:48:47;;;;;;;20.43;15.83;;;1.20;99.90;;;;;;6249307;23;20402;-64
2022/12/13 11:51:22;;;;;;;19.73;15.37;;;1.00;99.90;;;;;;6248771;22;20442;-63
2022/12/13 11:53:56;;;;;;;19.33;16.00;;;1.00;99.90;;;;;;6247545;23;20395;-63
2022/12/13 11:56:27;;;;;;;16.57;14.70;;;1.20;99.90;;;;;;6247681;23;20464;-63
2022/12/13 11:59:02;;;;;;;19.87;15.10;;;1.00;99.90;;;;;;6247192;23;20482;-64
2022/12/13 12:01:35;;;;;;;17.00;15.00;;;1.00;99.90;;;;;;6247408;22;20468;-63
2022/12/13 12:04:12;;;;;;;22.33;16.00;;;0.90;99.90;;;;;;6247590;23;20399;-63
2022/12/13 12:06:44;;;;;;;20.10;15.97;;;0.90;99.90;;;;;;6247417;23;20445;-63
2022/12/13 12:09:14;;;;;;;18.80;15.43;;;0.90;99.90;;;;;;6247645;23;20727;-63
2022/12/13 12:11:46;;;;;;;23.60;16.00;;;0.80;99.90;;;;;;6247183;22;20537;-63
2022/12/13 12:14:19;;;;;;;20.33;16.30;;;0.80;99.90;;;;;;6247631;23;20408;-63
2022/12/13 12:16:50;;;;;;;17.63;14.83;;;0.80;99.90;;;;;;6247302;23;20395;-63
2022/12/13 12:19:19;;;;;;;16.67;14.83;;;0.80;99.90;;;;;;6246918;23;20909;-64
2022/12/13 12:22:03;;;;;;;18.97;16.10;;;0.80;99.90;;;;;;6247105;22;20480;-63
2022/12/13 12:24:39;;;;;;;20.60;15.87;;;0.90;99.90;;;;;;6247294;23;20771;-63
2022/12/13 12:27:22;;;;;;;18.13;15.17;;;0.90;99.90;;;;;;6246908;23;20895;-63
2022/12/13 12:30:10;;;;;;;19.33;15.90;;;0.90;99.90;;;;;;6247855;23;20396;-63
2022/12/13 12:32:44;;;;;;;17.93;15.43;;;0.80;99.90;;;;;;6247438;22;20481;-64
2022/12/13 12:35:24;;;;;;;17.90;14.97;;;0.80;99.90;;;;;;6247614;23;20399;-63
2022/12/13 12:37:56;;;;;;;19.90;14.70;;;0.90;99.90;;;;;;6247114;23;20395;-63
2022/12/13 12:40:51;;;;;;;16.90;14.10;;;0.90;99.90;;;;;;6247161;22;20391;-63
2022/12/13 12:43:25;;;;;;;20.53;15.00;;;1.00;99.90;;;;;;6246667;23;20414;-63
2022/12/13 12:46:05;;;;;;;17.60;13.77;;;1.00;99.90;;;;;;6247460;23;20764;-63
2022/12/13 12:48:58;;;;;;;17.77;15.33;;;1.00;99.90;;;;;;6247134;23;20402;-63
2022/12/13 12:51:33;;;;;;;20.40;15.23;;;0.90;99.90;;;;;;6245425;22;20443;-63
2022/12/13 12:54:19;;;;;;;18.33;13.50;;;1.00;99.90;;;;;;6246604;23;20399;-63
2022/12/13 12:56:53;;;;;;;18.00;15.87;;;0.90;99.90;;;;;;6246969;23;20450;-63
2022/12/13 12:59:27;;;;;;;17.30;14.70;;;0.90;99.90;;;;;;6247032;23;20501;-63
2022/12/13 13:02:01;;;;;;;17.53;15.10;;;0.90;99.90;;;;;;6246619;22;20806;-63
2022/12/13 13:04:32;;;;;;;17.63;14.10;;;0.90;99.90;;;;;;6246763;23;20399;-63
2022/12/13 13:07:02;;;;;;;18.27;15.37;;;1.00;99.90;;;;;;6246885;23;20395;-63
2022/12/13 13:09:31;;;;;;;23.10;17.20;;;1.00;99.90;;;;;;6246675;23;20438;-63
2022/12/13 13:11:58;;;;;;;19.10;14.53;;;1.10;99.90;;;;;;6246534;22;20811;-63
2022/12/13 13:14:35;;;;;;;17.20;14.37;;;1.10;99.90;;;;;;6246679;23;20438;-63
2022/12/13 13:17:42;;;;;;;17.53;15.17;;;1.20;99.90;;;;;;6247007;23;20724;-64
2022/12/13 13:20:22;;;;;;;18.93;14.33;;;1.30;99.90;;;;;;6245921;23;20899;-63
2022/12/13 13:22:49;;;;;;;18.70;14.93;;;1.30;99.90;;;;;;6246606;23;20390;-63
2022/12/13 13:25:30;;;;;;;18.67;15.87;;;1.20;99.90;;;;;;6246701;23;20414;-63
2022/12/13 13:28:06;;;;;;;14.67;13.07;;;1.20;99.90;;;;;;6246609;23;20497;-63
2022/12/13 13:30:34;;;;;;;15.93;14.17;;;1.30;99.90;;;;;;6246660;22;20406;-63
2022/12/13 13:33:02;;;;;;;15.87;13.93;;;1.30;99.90;;;;;;6246421;23;20430;-63
2022/12/13 13:35:52;;;;;;;18.77;15.80;;;1.40;99.90;;;;;;6246496;23;20415;-63
2022/12/13 13:38:51;;;;;;;18.63;14.57;;;1.30;99.90;;;;;;6248082;23;20478;-63
2022/12/13 13:41:41;;;;;;;19.13;15.33;;;1.20;99.90;;;;;;6225480;22;20431;-63
2022/12/13 13:44:32;;;;;;;17.97;14.70;;;1.20;99.90;;;;;;6247508;23;20469;-63
2022/12/13 13:47:12;;;;;;;23.57;17.23;;;1.20;99.90;;;;;;6252778;23;20476;-63
2022/12/13 13:49:54;;;;;;;25.70;15.57;;;1.10;99.90;;;;;;6249955;23;20411;-63
2022/12/13 13:52:23;;;;;;;18.30;15.17;;;1.20;99.90;;;;;;6248177;22;20530;-63
2022/12/13 13:55:35;;;;;;;22.83;14.50;;;1.10;99.90;;;;;;6246996;23;20410;-63
2022/12/13 13:58:48;;;;;;;18.57;15.57;;;1.10;99.90;;;;;;6216406;23;20441;-63
2022/12/13 14:01:45;;;;;;;27.67;17.00;;;1.00;99.90;;;;;;6246988;22;20442;-63
2022/12/13 14:04:50;;;;;;;20.80;15.80;;;1.00;99.90;;;;;;6247589;23;20399;-63
2022/12/13 14:08:18;;;;;;;17.57;14.93;;;0.90;99.90;;;;;;6248239;23;20481;-63
2022/12/13 14:10:57;;;;;;;20.13;16.10;;;0.90;99.90;;;;;;6248426;22;20779;-63
2022/12/13 14:14:08;;;;;;;18.50;14.93;;;0.80;99.90;;;;;;6248803;23;20391;-63
2022/12/13 14:17:28;;;;;;;21.70;14.77;;;0.80;99.90;;;;;;6248391;23;20739;-63
2022/12/13 14:20:29;;;;;;;16.60;14.87;;;0.70;99.90;;;;;;6126207;23;20399;-63
2022/12/13 14:23:03;;;;;;;18.57;14.37;;;0.80;99.90;;;;;;6126136;23;20541;-63
2022/12/13 14:25:51;;;;;;;18.23;15.47;;;0.80;99.90;;;;;;6215574;23;20411;-63
2022/12/13 14:28:27;;;;;;;18.13;14.43;;;0.70;99.90;;;;;;6248446;23;20395;-63
2022/12/13 14:30:53;;;;;;;18.80;15.80;;;0.70;99.90;;;;;;6248456;22;20430;-63
2022/12/13 14:33:22;;;;;;;20.40;15.53;;;0.70;99.90;;;;;;6248426;23;20435;-63
2022/12/13 14:35:54;;;;;;;20.93;15.47;;;0.70;99.90;;;;;;6248254;23;20395;-63
2022/12/13 14:38:22;;;;;;;19.00;14.80;;;0.70;99.90;;;;;;6248412;23;20415;-63
2022/12/13 14:40:52;;;;;;;17.17;14.20;;;0.70;99.90;;;;;;6248929;22;20441;-63
2022/12/13 14:43:24;;;;;;;19.83;15.33;;;0.70;99.90;;;;;;6248875;23;20418;-63
2022/12/13 14:45:55;;;;;;;22.73;15.83;;;0.70;99.90;;;;;;6248742;23;20443;-64
2022/12/13 14:48:23;;;;;;;19.73;14.97;;;0.80;99.90;;;;;;6248395;23;20411;-63
2022/12/13 14:50:50;;;;;;;17.63;14.20;;;1.00;99.90;;;;;;6247767;22;20514;-63
2022/12/13 14:53:24;;;;;;;20.30;15.03;;;1.00;99.90;;;;;;6247315;23;20960;-63
2022/12/13 14:56:05;;;;;;;21.40;14.63;;;1.00;99.90;;;;;;6247265;23;20872;-64
2022/12/13 14:58:32;;;;;;;20.50;15.23;;;1.10;99.90;;;;;;6247899;23;20453;-63
2022/12/13 15:00:59;;;;;;;20.33;14.40;;;1.00;99.90;;;;;;6247632;22;20492;-63
2022/12/13 15:03:27;;;;;;;17.80;15.20;;;1.00;99.90;;;;;;6247845;23;20407;-63
2022/12/13 15:05:56;;;;;;;16.20;13.60;;;0.90;99.90;;;;;;6248033;23;20415;-63
2022/12/13 15:08:24;;;;;;;17.87;14.20;;;0.80;99.90;;;;;;6248016;23;20795;-63
2022/12/13 15:10:52;;;;;;;20.47;13.50;;;0.70;99.90;;;;;;6247983;22;20431;-63
2022/12/13 15:13:27;;;;;;;16.37;13.07;;;0.60;99.90;;;;;;6247776;23;20439;-63
2022/12/13 15:15:56;;;;;;;18.57;13.00;;;0.60;99.90;;;;;;6248286;23;20417;-63
2022/12/13 15:18:24;;;;;;;16.50;12.67;;;0.50;99.90;;;;;;6248142;23;20411;-64
2022/12/13 15:20:52;;;;;;;18.77;14.97;;;0.50;99.90;;;;;;6247856;22;20514;-63
2022/12/13 15:23:24;;;;;;;15.43;13.03;;;0.40;99.90;;;;;;6248143;23;20406;-63
2022/12/13 15:25:57;;;;;;;18.03;14.37;;;0.30;99.90;;;;;;6256106;23;20401;-63
2022/12/13 15:28:27;;;;;;;16.57;13.60;;;0.30;99.90;;;;;;6260549;23;20530;-63
2022/12/13 15:30:55;;;;;;;15.73;13.57;;;0.20;99.90;;;;;;6260026;22;20427;-63
2022/12/13 15:33:23;;;;;;;17.50;14.10;;;0.10;99.90;;;;;;6247710;23;20431;-63
2022/12/13 15:36:03;;;;;;;19.67;15.13;;;0.00;99.90;;;;;;6247549;23;20418;-63
2022/12/13 15:38:30;;;;;;;18.10;14.10;;;-0.10;99.90;;;;;;6247304;23;20701;-63
2022/12/13 15:40:59;;;;;;;18.90;15.40;;;-0.10;99.90;;;;;;6247276;22;20489;-63
2022/12/13 15:43:35;;;;;;;16.10;14.40;;;-0.20;99.90;;;;;;6247698;23;20406;-63
2022/12/13 15:46:05;;;;;;;20.10;16.80;;;-0.20;99.90;;;;;;6248877;23;20395;-63
2022/12/13 15:48:35;;;;;;;18.20;13.90;;;-0.30;99.90;;;;;;6249403;23;20494;-63
2022/12/13 15:51:08;;;;;;;16.73;15.03;;;-0.40;99.90;;;;;;6248199;22;20431;-63
2022/12/13 15:53:36;;;;;;;20.07;16.17;;;-0.40;99.90;;;;;;6247537;23;20435;-63
2022/12/13 15:56:24;;;;;;;19.50;15.80;;;-0.40;99.90;;;;;;6247710;23;20434;-63
2022/12/13 15:58:54;;;;;;;18.47;16.50;;;-0.50;99.90;;;;;;6247284;23;20722;-63
2022/12/13 16:01:29;;;;;;;16.90;15.00;;;-0.50;99.90;;;;;;6247169;22;20489;-63
2022/12/13 16:03:56;;;;;;;20.50;16.23;;;-0.60;99.90;;;;;;6246857;23;20418;-63
2022/12/13 16:06:25;;;;;;;17.37;14.30;;;-0.70;99.90;;;;;;6247220;23;20433;-63
2022/12/13 16:08:54;;;;;;;19.43;15.00;;;-0.70;99.90;;;;;;6247130;23;20410;-63
2022/12/13 16:11:28;;;;;;;21.70;15.80;;;-0.80;99.90;;;;;;6246634;22;20939;-63
2022/12/13 16:14:16;;;;;;;22.47;15.50;;;-0.70;99.90;;;;;;6248133;23;20470;-63
2022/12/13 16:16:43;;;;;;;18.30;15.80;;;-0.80;99.90;;;;;;6246876;23;20411;-63
2022/12/13 16:19:18;;;;;;;22.07;16.37;;;-0.90;99.90;;;;;;6247120;23;20418;-63
2022/12/13 16:21:44;;;;;;;21.90;15.83;;;-0.90;99.90;;;;;;6247087;22;20464;-62
2022/12/13 16:24:11;;;;;;;21.60;15.43;;;-0.90;99.90;;;;;;6247067;23;20415;-63
2022/12/13 16:26:42;;;;;;;18.43;16.13;;;-0.90;99.90;;;;;;6246370;23;20411;-63
2022/12/13 16:29:13;;;;;;;18.33;16.27;;;-0.90;99.90;;;;;;6247259;23;20399;-62
2022/12/13 16:31:40;;;;;;;18.50;15.93;;;-1.00;99.90;;;;;;6247371;22;20504;-63
2022/12/13 16:34:06;;;;;;;22.90;17.43;;;-1.00;99.90;;;;;;6247541;23;20418;-63
2022/12/13 16:36:34;;;;;;;21.90;15.40;;;-0.90;99.90;;;;;;6246584;23;20415;-63
2022/12/13 16:39:00;;;;;;;17.50;15.30;;;-0.90;99.90;;;;;;6247046;23;20410;-64
2022/12/13 16:41:27;;;;;;;18.00;15.10;;;-1.00;99.90;;;;;;6247703;22;20501;-63
2022/12/13 16:43:56;;;;;;;22.07;15.80;;;-1.10;99.90;;;;;;6247171;23;20407;-63
2022/12/13 16:46:24;;;;;;;22.30;15.80;;;-1.10;99.90;;;;;;6247108;23;20439;-63
2022/12/13 16:48:50;;;;;;;26.20;17.10;;;-1.10;99.90;;;;;;6247212;23;20410;-64
2022/12/13 16:51:17;;;;;;;19.13;16.50;;;-1.10;99.90;;;;;;6247099;22;20758;-63
2022/12/13 16:53:44;;;;;;;18.60;16.60;;;-1.10;99.90;;;;;;6246942;23;21050;-63
2022/12/13 16:56:15;;;;;;;20.27;16.53;;;-1.10;99.90;;;;;;6247409;23;20498;-63
2022/12/13 16:58:42;;;;;;;19.10;16.30;;;-1.10;99.90;;;;;;6247260;23;20402;-62
2022/12/13 17:01:09;;;;;;;22.80;18.13;;;-1.10;99.90;;;;;;6247416;22;20443;-63
2022/12/13 17:03:38;;;;;;;18.17;15.40;;;-1.20;99.90;;;;;;6247334;23;20407;-64
2022/12/13 17:06:05;;;;;;;17.07;14.77;;;-1.10;99.90;;;;;;6248409;23;20395;-69
2022/12/13 17:08:32;;;;;;;20.80;17.70;;;-1.20;99.90;;;;;;6247709;23;20460;-70
2022/12/13 17:11:00;;;;;;;17.30;15.23;;;-1.00;99.90;;;;;;6248262;22;20430;-68
2022/12/13 17:13:26;;;;;;;18.63;15.17;;;-0.90;99.90;;;;;;6249015;23;20435;-68
2022/12/13 17:15:54;;;;;;;19.73;15.83;;;-0.90;99.90;;;;;;6248599;23;20418;-70
2022/12/13 17:18:21;;;;;;;18.33;15.17;;;-0.80;99.90;;;;;;6248059;23;20410;-67
2022/12/13 17:20:49;;;;;;;21.43;14.57;;;-0.80;99.90;;;;;;6247830;22;20431;-67
2022/12/13 17:23:17;;;;;;;15.80;13.87;;;-0.90;99.90;;;;;;6248283;23;20407;-68
2022/12/13 17:25:44;;;;;;;18.57;15.10;;;-0.90;99.90;;;;;;6250115;23;20445;-67
2022/12/13 17:28:10;;;;;;;15.40;13.70;;;-1.00;99.90;;;;;;6249737;23;20450;-68
2022/12/13 17:30:37;;;;;;;19.07;16.00;;;-1.00;99.90;;;;;;6248750;22;20904;-69
2022/12/13 17:33:06;;;;;;;18.87;15.00;;;-1.00;99.90;;;;;;6249661;23;20504;-68
2022/12/13 17:35:33;;;;;;;19.97;15.57;;;-1.10;99.90;;;;;;6247956;23;20900;-68
2022/12/13 17:38:01;;;;;;;18.90;15.03;;;-1.10;99.90;;;;;;6247595;23;20738;-69
2022/12/13 17:40:27;;;;;;;18.70;15.20;;;-1.10;99.90;;;;;;6249028;22;20426;-67
2022/12/13 17:42:54;;;;;;;18.40;14.13;;;-1.10;99.90;;;;;;6248381;23;20895;-68
2022/12/13 17:45:21;;;;;;;17.73;15.87;;;-1.10;99.90;;;;;;6248471;23;20410;-68
2022/12/13 17:47:49;;;;;;;21.23;16.10;;;-1.10;99.90;;;;;;6248679;23;20513;-67
2022/12/13 17:50:15;;;;;;;19.43;14.40;;;-1.10;99.90;;;;;;6248744;23;20418;-67
2022/12/13 17:52:42;;;;;;;20.43;15.30;;;-1.00;99.90;;;;;;6251299;22;20435;-68